Time;durP1;ratioP1;P1;durP2;ratioP2;P2;SDS_P1;SDS_P2;PMS_P1;PMS_P2;Temp;Humidity;BMP_temperature;BMP_pressure;BME280_temperature;BME280_humidity;BME280_pressure;Samples;Min_cycle;Max_cycle;Signal;HPM_P1;HPM_P2
2023/03/12 00:01:11;;;;;;;;;;;0.40;99.90;;;;;;5091619;28;19966;-60
2023/03/12 00:03:37;;;;;;;;;;;0.30;99.90;;;;;;5072113;28;19962;-60
2023/03/12 00:06:03;;;;;;;;;;;0.30;99.90;;;;;;5071751;28;20023;-61
2023/03/12 00:08:28;;;;;;;;;;;0.30;99.90;;;;;;5072269;28;19919;-60
2023/03/12 00:10:53;;;;;;;;;;;0.30;99.90;;;;;;5072431;28;19908;-60
2023/03/12 00:13:19;;;;;;;;;;;0.30;99.90;;;;;;5071478;28;19920;-60
2023/03/12 00:15:44;;;;;;;;;;;0.30;99.90;;;;;;5072438;28;19909;-60
2023/03/12 00:18:10;;;;;;;;;;;0.30;99.90;;;;;;5072323;28;19908;-61
2023/03/12 00:20:35;;;;;;;;;;;0.30;99.90;;;;;;5071378;28;19908;-61
2023/03/12 00:23:01;;;;;;;;;;;0.20;99.90;;;;;;5072234;28;19909;-59
2023/03/12 00:25:26;;;;;;;;;;;0.20;99.90;;;;;;5074171;28;20014;-60
2023/03/12 00:27:52;;;;;;;;;;;0.20;99.90;;;;;;5075323;28;20480;-60
2023/03/12 00:30:17;;;;;;;;;;;0.20;99.90;;;;;;5075942;28;19991;-60
2023/03/12 00:32:43;;;;;;;;;;;0.10;99.90;;;;;;5077832;28;19923;-59
2023/03/12 00:35:09;;;;;;;;;;;0.10;99.90;;;;;;5095332;28;19927;-59
2023/03/12 00:37:35;;;;;;;;;;;0.20;99.90;;;;;;5096152;28;19934;-59
2023/03/12 00:40:01;;;;;;;;;;;0.10;99.90;;;;;;5096020;28;19908;-59
2023/03/12 00:42:27;;;;;;;;;;;0.10;99.90;;;;;;5095324;28;19908;-61
2023/03/12 00:44:52;;;;;;;;;;;0.20;99.90;;;;;;5096239;28;19915;-60
2023/03/12 00:47:18;;;;;;;;;;;0.10;99.90;;;;;;5096101;28;20011;-61
2023/03/12 00:49:43;;;;;;;;;;;0.20;99.90;;;;;;5095366;28;19915;-59
2023/03/12 00:52:08;;;;;;;;;;;0.20;99.90;;;;;;5095919;28;19916;-59
2023/03/12 00:54:34;;;;;;;;;;;0.20;99.90;;;;;;5082452;28;20292;-61
2023/03/12 00:56:59;;;;;;;;;;;0.20;99.90;;;;;;5085874;28;19908;-59
2023/03/12 00:59:25;;;;;;;;;;;0.20;99.90;;;;;;5089320;28;20454;-60
2023/03/12 01:01:50;;;;;;;;;;;0.10;99.90;;;;;;5082469;28;20027;-58
2023/03/12 01:04:16;;;;;;;;;;;0.10;99.90;;;;;;5094791;28;20267;-59
2023/03/12 01:06:42;;;;;;;;;;;0.10;99.90;;;;;;5095529;28;19948;-60
2023/03/12 01:09:08;;;;;;;;;;;0.10;99.90;;;;;;5091431;28;19912;-60
2023/03/12 01:11:33;;;;;;;;;;;0.00;99.90;;;;;;5074392;28;20371;-60
2023/03/12 01:13:59;;;;;;;;;;;0.00;99.90;;;;;;5075174;28;19908;-61
2023/03/12 01:16:27;;;;;;;;;;;0.00;99.90;;;;;;5074423;28;20332;-61
2023/03/12 01:18:56;;;;;;;;;;;0.00;99.90;;;;;;5075373;28;20000;-58
2023/03/12 01:21:22;;;;;;;;;;;0.00;99.90;;;;;;5074985;28;19909;-61
2023/03/12 01:23:47;;;;;;;;;;;0.00;99.90;;;;;;5074171;28;20294;-59
2023/03/12 01:26:13;;;;;;;;;;;0.00;99.90;;;;;;5075104;28;19908;-59
2023/03/12 01:28:38;;;;;;;;;;;0.00;99.90;;;;;;5075073;28;19915;-60
2023/03/12 01:31:11;;;;;;;;;;;0.00;99.90;;;;;;5074030;28;19915;-60
2023/03/12 01:33:37;;;;;;;;;;;0.00;99.90;;;;;;5092912;28;20014;-59
2023/03/12 01:36:03;;;;;;;;;;;0.00;99.90;;;;;;5093956;28;20323;-60
2023/03/12 01:38:28;;;;;;;;;;;0.00;99.90;;;;;;5094061;28;19916;-61
2023/03/12 01:40:53;;;;;;;;;;;0.00;99.90;;;;;;5095032;28;19914;-59
2023/03/12 01:43:28;;;;;;;;;;;0.00;99.90;;;;;;5094798;28;19908;-58
2023/03/12 01:46:06;;;;;;;;;;;0.00;99.90;;;;;;5094097;28;19909;-59
2023/03/12 01:48:35;;;;;;;;;;;0.10;99.90;;;;;;5094683;28;19912;-61
2023/03/12 01:51:01;;;;;;;;;;;0.10;99.90;;;;;;5094863;28;20286;-61
2023/03/12 01:53:27;;;;;;;;;;;0.10;99.90;;;;;;5093843;28;20374;-60
2023/03/12 01:55:52;;;;;;;;;;;0.10;99.90;;;;;;5094587;28;19908;-60
2023/03/12 01:58:18;;;;;;;;;;;0.10;99.90;;;;;;5094517;28;19914;-60
2023/03/12 02:00:44;;;;;;;;;;;0.10;99.90;;;;;;5093559;28;19924;-60
2023/03/12 02:03:12;;;;;;;;;;;0.20;99.90;;;;;;5094045;28;20385;-61
2023/03/12 02:05:47;;;;;;;;;;;0.20;99.90;;;;;;5093652;28;19908;-61
2023/03/12 02:08:15;;;;;;;;;;;0.20;99.90;;;;;;5094245;28;20374;-61
2023/03/12 02:10:40;;;;;;;;;;;0.20;99.90;;;;;;5094384;28;19912;-61
2023/03/12 02:13:06;;;;;;;;;;;0.30;99.90;;;;;;5093573;28;19960;-60
2023/03/12 02:15:32;;;;;;;;;;;0.30;99.90;;;;;;5094178;28;20050;-60
2023/03/12 02:17:58;;;;;;;;;;;0.30;99.90;;;;;;5094106;28;19912;-60
2023/03/12 02:20:30;;;;;;;;;;;0.30;99.90;;;;;;5093309;28;19999;-60
2023/03/12 02:23:01;;;;;;;;;;;0.30;99.90;;;;;;5094053;28;20013;-61
2023/03/12 02:25:35;;;;;;;;;;;0.30;99.90;;;;;;5094044;28;19908;-60
2023/03/12 02:28:02;;;;;;;;;;;0.30;99.90;;;;;;5093292;28;19908;-61
2023/03/12 02:30:28;;;;;;;;;;;0.30;99.90;;;;;;5093818;28;19919;-61
2023/03/12 02:32:54;;;;;;;;;;;0.30;99.90;;;;;;5081416;28;19920;-61
2023/03/12 02:35:20;;;;;;;;;;;0.40;99.90;;;;;;5072875;28;19962;-62
2023/03/12 02:37:46;;;;;;;;;;;0.40;99.90;;;;;;5073727;28;19915;-61
2023/03/12 02:40:14;;;;;;;;;;;0.40;99.90;;;;;;5073897;28;19919;-60
2023/03/12 02:42:39;;;;;;;;;;;0.40;99.90;;;;;;5072692;28;20356;-60
2023/03/12 02:45:05;;;;;;;;;;;0.40;99.90;;;;;;5073582;28;19915;-59
2023/03/12 02:47:31;;;;;;;;;;;0.40;99.90;;;;;;5073961;28;19921;-61
2023/03/12 02:49:56;;;;;;;;;;;0.50;99.90;;;;;;5072708;28;19908;-61
2023/03/12 02:52:21;;;;;;;;;;;0.50;99.90;;;;;;5073045;28;20363;-58
2023/03/12 02:54:47;;;;;;;;;;;0.50;99.90;;;;;;5073442;28;19912;-60
2023/03/12 02:57:12;;;;;;;;;;;0.60;99.90;;;;;;5088260;28;19908;-62
2023/03/12 02:59:38;;;;;;;;;;;0.60;99.90;;;;;;5079280;28;20359;-60
2023/03/12 03:02:03;;;;;;;;;;;0.60;99.90;;;;;;5072276;28;19919;-61
2023/03/12 03:04:29;;;;;;;;;;;0.60;99.90;;;;;;5077476;28;19916;-61
2023/03/12 03:06:55;;;;;;;;;;;0.70;99.90;;;;;;5093340;28;19923;-60
2023/03/12 03:09:21;;;;;;;;;;;0.70;99.90;;;;;;5092587;28;19915;-60
2023/03/12 03:11:47;;;;;;;;;;;0.70;99.90;;;;;;5093230;28;20069;-60
2023/03/12 03:14:12;;;;;;;;;;;0.70;99.90;;;;;;5093083;28;20010;-60
2023/03/12 03:16:38;;;;;;;;;;;0.70;99.90;;;;;;5092429;28;19915;-62
2023/03/12 03:19:04;;;;;;;;;;;0.80;99.90;;;;;;5093184;28;20423;-60
2023/03/12 03:21:29;;;;;;;;;;;0.80;99.90;;;;;;5093032;28;19924;-60
2023/03/12 03:23:54;;;;;;;;;;;0.80;99.90;;;;;;5092360;28;19909;-61
2023/03/12 03:26:21;;;;;;;;;;;0.80;99.90;;;;;;5092865;28;19987;-61
2023/03/12 03:28:46;;;;;;;;;;;0.90;99.90;;;;;;5093196;28;20007;-59
2023/03/12 03:31:12;;;;;;;;;;;0.90;99.90;;;;;;5092146;28;19999;-61
2023/03/12 03:33:38;;;;;;;;;;;0.90;99.90;;;;;;5074875;28;19962;-60
2023/03/12 03:36:04;;;;;;;;;;;1.00;99.90;;;;;;5072779;28;19909;-61
2023/03/12 03:38:30;;;;;;;;;;;1.00;99.90;;;;;;5071893;28;19917;-60
2023/03/12 03:40:55;;;;;;;;;;;1.00;99.90;;;;;;5072630;28;19920;-60
2023/03/12 03:43:21;;;;;;;;;;;1.00;99.90;;;;;;5072657;28;19908;-59
2023/03/12 03:45:47;;;;;;;;;;;1.00;99.90;;;;;;5071987;28;19915;-59
2023/03/12 03:48:12;;;;;;;;;;;1.00;99.90;;;;;;5072569;28;20342;-61
2023/03/12 03:50:38;;;;;;;;;;;1.10;99.90;;;;;;5072545;28;20493;-61
2023/03/12 03:53:04;;;;;;;;;;;1.00;99.90;;;;;;5071686;28;19917;-61
2023/03/12 03:55:30;;;;;;;;;;;1.10;99.90;;;;;;5072471;28;20318;-59
2023/03/12 03:57:55;;;;;;;;;;;1.10;99.90;;;;;;5072407;28;19916;-61
2023/03/12 04:00:21;;;;;;;;;;;1.10;99.90;;;;;;5073603;28;19921;-60
2023/03/12 04:02:46;;;;;;;;;;;1.10;99.90;;;;;;5076584;28;20337;-60
2023/03/12 04:05:12;;;;;;;;;;;1.10;99.90;;;;;;5057978;28;19940;-60
2023/03/12 04:07:37;;;;;;;;;;;1.20;99.90;;;;;;5076537;28;20307;-60
2023/03/12 04:10:04;;;;;;;;;;;1.20;99.90;;;;;;5076446;28;19908;-61
2023/03/12 04:12:30;;;;;;;;;;;1.20;99.90;;;;;;5075487;28;19924;-60
2023/03/12 04:14:55;;;;;;;;;;;1.30;99.90;;;;;;5076356;28;19916;-59
2023/03/12 04:17:21;;;;;;;;;;;1.20;99.90;;;;;;5076228;28;19908;-60
2023/03/12 04:19:46;;;;;;;;;;;1.30;99.90;;;;;;5075570;28;20380;-61
2023/03/12 04:22:12;;;;;;;;;;;1.30;99.90;;;;;;5096294;28;20392;-58
2023/03/12 04:24:37;;;;;;;;;;;1.30;99.90;;;;;;5096415;28;20402;-61
2023/03/12 04:27:03;;;;;;;;;;;1.30;99.90;;;;;;5095783;28;19909;-60
2023/03/12 04:29:28;;;;;;;;;;;1.30;99.90;;;;;;5096182;28;19915;-60
2023/03/12 04:31:54;;;;;;;;;;;1.30;99.90;;;;;;5095531;28;19932;-60
2023/03/12 04:34:19;;;;;;;;;;;1.30;99.90;;;;;;5095605;28;20011;-60
2023/03/12 04:36:45;;;;;;;;;;;1.40;99.90;;;;;;5096189;28;19998;-61
2023/03/12 04:39:11;;;;;;;;;;;1.40;99.90;;;;;;5096109;28;19973;-60
2023/03/12 04:41:37;;;;;;;;;;;1.40;99.90;;;;;;5095008;28;19920;-60
2023/03/12 04:44:02;;;;;;;;;;;1.40;99.90;;;;;;5096053;28;20007;-60
2023/03/12 04:46:28;;;;;;;;;;;1.40;99.90;;;;;;5095600;28;20001;-61
2023/03/12 04:48:54;;;;;;;;;;;1.40;99.90;;;;;;5095235;28;19912;-61
2023/03/12 04:51:20;;;;;;;;;;;1.40;99.90;;;;;;5095714;28;19956;-59
2023/03/12 04:53:45;;;;;;;;;;;1.40;99.90;;;;;;5095868;28;19908;-60
2023/03/12 04:56:11;;;;;;;;;;;1.40;99.90;;;;;;5094753;28;19960;-59
2023/03/12 04:58:36;;;;;;;;;;;1.40;99.90;;;;;;5095761;28;20298;-60
2023/03/12 05:01:02;;;;;;;;;;;1.40;99.90;;;;;;5095573;28;19920;-61
2023/03/12 05:03:28;;;;;;;;;;;1.40;99.90;;;;;;5094599;28;20061;-60
2023/03/12 05:05:53;;;;;;;;;;;1.50;99.90;;;;;;5095583;28;20264;-60
2023/03/12 05:08:19;;;;;;;;;;;1.50;99.90;;;;;;5095702;28;19908;-61
2023/03/12 05:10:45;;;;;;;;;;;1.50;99.90;;;;;;5094403;28;20419;-61
2023/03/12 05:13:17;;;;;;;;;;;1.50;99.90;;;;;;5095349;28;19916;-60
2023/03/12 05:15:43;;;;;;;;;;;1.50;99.90;;;;;;5094835;28;19940;-61
2023/03/12 05:18:09;;;;;;;;;;;1.50;99.90;;;;;;5095446;28;20340;-61
2023/03/12 05:20:34;;;;;;;;;;;1.50;99.90;;;;;;5095481;28;19912;-60
2023/03/12 05:22:59;;;;;;;;;;;1.50;99.90;;;;;;5094466;28;19914;-60
2023/03/12 05:25:25;;;;;;;;;;;1.50;99.90;;;;;;5095177;28;20435;-59
2023/03/12 05:27:50;;;;;;;;;;;1.50;99.90;;;;;;5095237;28;19908;-59
2023/03/12 05:30:16;;;;;;;;;;;1.50;99.90;;;;;;5094278;28;19948;-61
2023/03/12 05:32:41;;;;;;;;;;;1.50;99.90;;;;;;5086676;28;19924;-60
2023/03/12 05:35:08;;;;;;;;;;;1.50;99.90;;;;;;5074888;28;19915;-60
2023/03/12 05:37:34;;;;;;;;;;;1.50;99.90;;;;;;5074082;28;19940;-60
2023/03/12 05:39:59;;;;;;;;;;;1.50;99.90;;;;;;5074653;28;19967;-60
2023/03/12 05:42:25;;;;;;;;;;;1.50;99.90;;;;;;5074492;28;19916;-60
2023/03/12 05:44:51;;;;;;;;;;;1.50;99.90;;;;;;5073837;28;19912;-62
2023/03/12 05:47:16;;;;;;;;;;;1.50;99.90;;;;;;5074518;28;19915;-60
2023/03/12 05:49:43;;;;;;;;;;;1.60;99.90;;;;;;5074538;28;19908;-61
2023/03/12 05:52:08;;;;;;;;;;;1.50;99.90;;;;;;5073557;28;19920;-60
2023/03/12 05:54:34;;;;;;;;;;;1.60;99.90;;;;;;5074243;28;19991;-60
2023/03/12 05:57:00;;;;;;;;;;;1.60;99.90;;;;;;5074398;28;19916;-58
2023/03/12 05:59:25;;;;;;;;;;;1.60;99.90;;;;;;5073261;28;19916;-59
2023/03/12 06:01:50;;;;;;;;;;;1.60;99.90;;;;;;5074163;28;19917;-59
2023/03/12 06:04:16;;;;;;;;;;;1.60;99.90;;;;;;5074141;28;19909;-60
2023/03/12 06:06:41;;;;;;;;;;;1.60;99.90;;;;;;5073432;28;20392;-59
2023/03/12 06:09:07;;;;;;;;;;;1.70;99.90;;;;;;5074100;28;19908;-61
2023/03/12 06:11:33;;;;;;;;;;;1.70;99.90;;;;;;5073968;28;20026;-60
2023/03/12 06:13:59;;;;;;;;;;;1.70;99.90;;;;;;5073402;28;20015;-61
2023/03/12 06:16:26;;;;;;;;;;;1.70;99.90;;;;;;5074038;28;19954;-61
2023/03/12 06:18:52;;;;;;;;;;;1.70;99.90;;;;;;5073226;28;19908;-59
2023/03/12 06:21:19;;;;;;;;;;;1.70;99.90;;;;;;5073883;28;20050;-59
2023/03/12 06:23:45;;;;;;;;;;;1.70;99.90;;;;;;5073193;28;19994;-61
2023/03/12 06:26:11;;;;;;;;;;;1.80;99.90;;;;;;5073062;28;20548;-61
2023/03/12 06:28:36;;;;;;;;;;;1.80;99.90;;;;;;5073767;28;20432;-60
2023/03/12 06:31:02;;;;;;;;;;;1.80;99.90;;;;;;5073699;28;19913;-60
2023/03/12 06:33:28;;;;;;;;;;;1.80;99.90;;;;;;5086681;28;20349;-59
2023/03/12 06:35:54;;;;;;;;;;;1.80;99.90;;;;;;5094013;28;19983;-58
2023/03/12 06:38:20;;;;;;;;;;;1.80;99.90;;;;;;5093591;28;19965;-62
2023/03/12 06:40:59;;;;;;;;;;;1.90;99.90;;;;;;5091656;28;19970;-60
2023/03/12 06:43:25;;;;;;;;;;;1.90;99.90;;;;;;5074259;28;19954;-61
2023/03/12 06:45:52;;;;;;;;;;;1.90;99.90;;;;;;5093572;28;19908;-59
2023/03/12 06:48:17;;;;;;;;;;;2.00;99.90;;;;;;5092773;28;20378;-59
2023/03/12 06:50:43;;;;;;;;;;;2.00;99.90;;;;;;5078078;28;19915;-60
2023/03/12 06:53:08;;;;;;;;;;;2.00;99.90;;;;;;5092483;28;20298;-57
2023/03/12 06:55:34;;;;;;;;;;;2.00;99.90;;;;;;5091773;28;19916;-60
2023/03/12 06:57:59;;;;;;;;;;;2.00;99.90;;;;;;5092590;28;19909;-60
2023/03/12 07:00:25;;;;;;;;;;;2.00;99.90;;;;;;5092161;28;19920;-60
2023/03/12 07:02:50;;;;;;;;;;;2.00;99.90;;;;;;5092364;28;20508;-60
2023/03/12 07:05:16;;;;;;;;;;;2.00;99.90;;;;;;5093538;28;19961;-60
2023/03/12 07:07:41;;;;;;;;;;;2.00;99.90;;;;;;5093355;28;19955;-57
2023/03/12 07:10:08;;;;;;;;;;;2.10;99.90;;;;;;5092569;28;19968;-60
2023/03/12 07:12:34;;;;;;;;;;;2.10;99.90;;;;;;5093312;28;19916;-59
2023/03/12 07:15:00;;;;;;;;;;;2.20;99.90;;;;;;5093302;28;19915;-59
2023/03/12 07:17:26;;;;;;;;;;;2.20;99.90;;;;;;5092284;28;19908;-61
2023/03/12 07:19:51;;;;;;;;;;;2.20;99.90;;;;;;5073228;28;20282;-60
2023/03/12 07:22:17;;;;;;;;;;;2.20;99.90;;;;;;5072029;28;19916;-59
2023/03/12 07:24:42;;;;;;;;;;;2.20;99.90;;;;;;5072942;28;20017;-60
2023/03/12 07:27:08;;;;;;;;;;;2.20;99.90;;;;;;5072857;28;19920;-60
2023/03/12 07:29:33;;;;;;;;;;;2.20;99.90;;;;;;5071979;28;19908;-59
2023/03/12 07:31:58;;;;;;;;;;;2.20;99.90;;;;;;5073263;28;20459;-61
2023/03/12 07:34:24;;;;;;;;;;;2.20;99.90;;;;;;5092898;28;19908;-60
2023/03/12 07:36:49;;;;;;;;;;;2.20;99.90;;;;;;5091878;28;19912;-58
2023/03/12 07:39:15;;;;;;;;;;;2.20;99.90;;;;;;5093078;28;19957;-61
2023/03/12 07:41:40;;;;;;;;;;;2.30;99.90;;;;;;5093012;28;19915;-59
2023/03/12 07:44:06;;;;;;;;;;;2.30;99.90;;;;;;5092143;28;19915;-60
2023/03/12 07:46:32;;;;;;;;;;;2.30;99.90;;;;;;5086167;28;19919;-60
2023/03/12 07:48:58;;;;;;;;;;;2.40;99.90;;;;;;5083510;28;19921;-59
2023/03/12 07:51:23;;;;;;;;;;;2.40;99.90;;;;;;5079227;28;19934;-58
2023/03/12 07:53:49;;;;;;;;;;;2.40;99.90;;;;;;5096862;28;19912;-60
2023/03/12 07:56:14;;;;;;;;;;;2.40;99.90;;;;;;5095412;28;19912;-60
2023/03/12 07:58:39;;;;;;;;;;;2.40;99.90;;;;;;5099431;28;20355;-60
2023/03/12 08:01:05;;;;;;;;;;;2.50;99.90;;;;;;5102028;28;19972;-61
2023/03/12 08:03:31;;;;;;;;;;;2.50;99.90;;;;;;5100509;28;19907;-59
2023/03/12 08:06:01;;;;;;;;;;;2.40;99.90;;;;;;5100693;28;19958;-60
2023/03/12 08:08:27;;;;;;;;;;;2.40;99.90;;;;;;5099931;28;19912;-60
2023/03/12 08:10:53;;;;;;;;;;;2.40;99.90;;;;;;5100855;28;19912;-59
2023/03/12 08:13:18;;;;;;;;;;;2.30;99.90;;;;;;5099838;28;19927;-59
2023/03/12 08:15:44;;;;;;;;;;;2.30;99.90;;;;;;5100130;28;20195;-60
2023/03/12 08:18:09;;;;;;;;;;;2.30;99.90;;;;;;5102290;28;19908;-59
2023/03/12 08:20:35;;;;;;;;;;;2.30;99.90;;;;;;5097091;28;20371;-58
2023/03/12 08:23:00;;;;;;;;;;;2.20;99.90;;;;;;5102185;28;19941;-59
2023/03/12 08:25:26;;;;;;;;;;;2.30;99.90;;;;;;5098182;28;19952;-58
2023/03/12 08:27:51;;;;;;;;;;;2.30;99.90;;;;;;5094007;28;19923;-60
2023/03/12 08:30:17;;;;;;;;;;;2.30;99.90;;;;;;5106063;28;19996;-58
2023/03/12 08:32:42;;;;;;;;;;;2.30;99.90;;;;;;5104537;28;19916;-58
2023/03/12 08:35:09;;;;;;;;;;;2.30;99.90;;;;;;5091868;28;19969;-58
2023/03/12 08:37:34;;;;;;;;;;;2.30;99.90;;;;;;5072581;28;19913;-59
2023/03/12 08:40:00;;;;;;;;;;;2.30;99.90;;;;;;5088657;28;19935;-59
2023/03/12 08:42:26;;;;;;;;;;;2.30;99.90;;;;;;5074265;28;19920;-60
2023/03/12 08:44:52;;;;;;;;;;;2.30;99.90;;;;;;5092623;28;19908;-58
2023/03/12 08:47:17;;;;;;;;;;;2.30;99.90;;;;;;5080261;28;19956;-60
2023/03/12 08:49:43;;;;;;;;;;;2.30;99.90;;;;;;5075577;28;19909;-59
2023/03/12 08:52:08;;;;;;;;;;;2.30;99.90;;;;;;5110823;28;20302;-59
2023/03/12 08:54:34;;;;;;;;;;;2.30;99.90;;;;;;5114856;28;20260;-61
2023/03/12 08:56:59;;;;;;;;;;;2.30;99.90;;;;;;5103891;28;19951;-58
2023/03/12 08:59:25;;;;;;;;;;;2.30;99.90;;;;;;5091149;28;19966;-60
2023/03/12 09:01:50;;;;;;;;;;;2.40;99.90;;;;;;5076079;28;19912;-57
2023/03/12 09:04:16;;;;;;;;;;;2.40;99.90;;;;;;5106168;28;19999;-58
2023/03/12 09:06:42;;;;;;;;;;;2.50;99.90;;;;;;5103001;28;20294;-59
2023/03/12 09:09:09;;;;;;;;;;;2.60;99.90;;;;;;5104354;28;20420;-58
2023/03/12 09:11:35;;;;;;;;;;;2.60;99.90;;;;;;5100749;28;20390;-59
2023/03/12 09:14:01;;;;;;;;;;;2.70;99.90;;;;;;5100972;28;19912;-59
2023/03/12 09:16:26;;;;;;;;;;;2.70;99.90;;;;;;5100438;28;20365;-58
2023/03/12 09:18:52;;;;;;;;;;;2.70;99.90;;;;;;5102731;28;19912;-59
2023/03/12 09:21:18;;;;;;;;;;;2.60;99.90;;;;;;5097657;28;19912;-59
2023/03/12 09:23:43;;;;;;;;;;;2.60;99.90;;;;;;5102259;28;20401;-59
2023/03/12 09:26:09;;;;;;;;;;;2.70;99.90;;;;;;5104382;28;19912;-57
2023/03/12 09:28:35;;;;;;;;;;;2.70;99.90;;;;;;5105681;28;19920;-57
2023/03/12 09:31:01;;;;;;;;;;;2.70;99.90;;;;;;5103093;28;19908;-57
2023/03/12 09:33:26;;;;;;;;;;;2.80;99.90;;;;;;5104213;28;20271;-57
2023/03/12 09:35:56;;;;;;;;;;;2.80;99.90;;;;;;5103153;28;19936;-58
2023/03/12 09:38:22;;;;;;;;;;;2.80;99.90;;;;;;5099003;28;19912;-55
2023/03/12 09:40:47;;;;;;;;;;;2.80;99.90;;;;;;5104419;28;19915;-57
2023/03/12 09:43:19;;;;;;;;;;;2.80;99.90;;;;;;5103430;28;20339;-58
2023/03/12 09:45:46;;;;;;;;;;;2.90;99.90;;;;;;5104257;28;20377;-58
2023/03/12 09:48:17;;;;;;;;;;;3.00;99.90;;;;;;5103602;28;19995;-58
2023/03/12 09:50:44;;;;;;;;;;;3.00;99.90;;;;;;5099024;28;19912;-56
2023/03/12 09:53:40;;;;;;;;;;;3.00;99.90;;;;;;5104076;28;19917;-58
2023/03/12 09:56:09;;;;;;;;;;;3.00;99.90;;;;;;5086357;28;20305;-58
2023/03/12 09:58:37;;;;;;;;;;;3.00;99.90;;;;;;5100605;28;19919;-59
2023/03/12 10:01:08;;;;;;;;;;;3.00;99.90;;;;;;5094370;28;19930;-58
2023/03/12 10:03:37;;;;;;;;;;;3.00;99.90;;;;;;5098328;28;19934;-57
2023/03/12 10:06:08;;;;;;;;;;;2.90;99.90;;;;;;5090082;28;20003;-57
2023/03/12 10:08:42;;;;;;;;;;;3.00;99.90;;;;;;5087525;28;19916;-57
2023/03/12 10:11:08;;;;;;;;;;;2.90;99.90;;;;;;5073523;28;19908;-57
2023/03/12 10:13:39;;;;;;;;;;;2.90;99.90;;;;;;5075215;28;19990;-57
2023/03/12 10:16:28;;;;;;;;;;;2.90;99.90;;;;;;5088225;28;19961;-57
2023/03/12 10:19:08;;;;;;;;;;;2.90;99.90;;;;;;5084151;28;20164;-57
2023/03/12 10:21:41;;;;;;;;;;;3.00;99.90;;;;;;5078588;28;20003;-58
2023/03/12 10:24:09;;;;;;;;;;;3.00;99.90;;;;;;5086491;28;19912;-58
2023/03/12 10:26:37;;;;;;;;;;;3.00;99.90;;;;;;5093332;28;19912;-58
2023/03/12 10:29:07;;;;;;;;;;;3.10;99.90;;;;;;5094082;28;19915;-57
2023/03/12 10:31:40;;;;;;;;;;;3.10;99.90;;;;;;5094018;28;19916;-56
2023/03/12 10:34:14;;;;;;;;;;;3.10;99.90;;;;;;5093116;28;19977;-58
2023/03/12 10:36:40;;;;;;;;;;;3.10;99.90;;;;;;5094103;28;19908;-59
2023/03/12 10:39:13;;;;;;;;;;;3.20;99.90;;;;;;5072691;28;19916;-59
2023/03/12 10:41:40;;;;;;;;;;;3.20;99.90;;;;;;5073560;28;19916;-57
2023/03/12 10:44:07;;;;;;;;;;;3.20;99.90;;;;;;5073488;28;19931;-57
2023/03/12 10:46:42;;;;;;;;;;;3.20;99.90;;;;;;5072618;28;19916;-58
2023/03/12 10:49:21;;;;;;;;;;;3.30;99.90;;;;;;5073311;28;19909;-58
2023/03/12 10:52:00;;;;;;;;;;;3.30;99.90;;;;;;5091395;28;20280;-57
2023/03/12 10:54:27;;;;;;;;;;;3.40;99.90;;;;;;5092652;28;19912;-58
2023/03/12 10:56:52;;;;;;;;;;;3.40;99.90;;;;;;5093641;28;19909;-58
2023/03/12 10:59:21;;;;;;;;;;;3.50;99.90;;;;;;5093398;28;19916;-57
2023/03/12 11:01:49;;;;;;;;;;;3.50;99.90;;;;;;5092337;28;20448;-58
2023/03/12 11:04:18;;;;;;;;;;;3.50;99.90;;;;;;5093311;28;19908;-58
2023/03/12 11:07:04;;;;;;;;;;;3.60;99.90;;;;;;5093640;28;19914;-58
2023/03/12 11:09:29;;;;;;;;;;;3.50;99.90;;;;;;5084367;28;19965;-57
2023/03/12 11:11:55;;;;;;;;;;;3.40;99.90;;;;;;5082633;28;20020;-57
2023/03/12 11:14:24;;;;;;;;;;;3.40;99.90;;;;;;5078181;28;20397;-57
2023/03/12 11:16:51;;;;;;;;;;;3.50;99.90;;;;;;5073042;28;19913;-58
2023/03/12 11:19:30;;;;;;;;;;;3.40;99.90;;;;;;5073300;28;20371;-58
2023/03/12 11:21:57;;;;;;;;;;;3.50;99.90;;;;;;5074406;28;19920;-57
2023/03/12 11:24:23;;;;;;;;;;;3.50;99.90;;;;;;5083731;28;19996;-58
2023/03/12 11:26:50;;;;;;;;;;;3.60;99.90;;;;;;5103649;28;19964;-59
2023/03/12 11:29:19;;;;;;;;;;;3.70;99.90;;;;;;5100425;28;19908;-57
2023/03/12 11:31:49;;;;;;;;;;;3.70;99.90;;;;;;5092851;28;19920;-57
2023/03/12 11:34:20;;;;;;;;;;;3.80;99.90;;;;;;5092933;28;19912;-58
2023/03/12 11:37:05;;;;;;;;;;;3.80;99.90;;;;;;5074926;28;20360;-58
2023/03/12 11:39:49;;;;;;;;;;;3.80;99.90;;;;;;5077171;28;19995;-58
2023/03/12 11:42:22;;;;;;;;;;;3.90;99.90;;;;;;5073229;28;19912;-60
2023/03/12 11:45:06;;;;;;;;;;;3.90;99.90;;;;;;5075262;28;19991;-60
2023/03/12 11:47:49;;;;;;;;;;;4.00;99.90;;;;;;5081200;28;19916;-58
2023/03/12 11:50:14;;;;;;;;;;;4.00;99.90;;;;;;5092247;28;19915;-58
2023/03/12 11:52:52;;;;;;;;;;;4.10;99.90;;;;;;5092297;28;19916;-58
2023/03/12 11:55:18;;;;;;;;;;;4.20;99.90;;;;;;5092520;28;20339;-58
2023/03/12 11:58:02;;;;;;;;;;;4.30;99.90;;;;;;5080215;28;19963;-59
2023/03/12 12:00:32;;;;;;;;;;;4.40;99.90;;;;;;5072277;28;19928;-58
2023/03/12 12:03:14;;;;;;;;;;;4.50;99.90;;;;;;5073602;28;19935;-59
2023/03/12 12:05:59;;;;;;;;;;;4.60;99.90;;;;;;5072927;28;19943;-59
2023/03/12 12:08:27;;;;;;;;;;;4.70;99.90;;;;;;5083010;28;19908;-57
2023/03/12 12:10:53;;;;;;;;;;;4.80;99.90;;;;;;5071542;28;20272;-57
2023/03/12 12:13:25;;;;;;;;;;;4.80;99.90;;;;;;5072152;28;19931;-59
2023/03/12 12:15:56;;;;;;;;;;;4.80;99.90;;;;;;5072275;28;19909;-57
2023/03/12 12:18:44;;;;;;;;;;;4.80;99.90;;;;;;5087870;28;19946;-57
2023/03/12 12:21:18;;;;;;;;;;;4.90;99.90;;;;;;5094127;28;19915;-58
2023/03/12 12:23:56;;;;;;;;;;;5.00;99.90;;;;;;5096507;28;19914;-58
2023/03/12 12:26:37;;;;;;;;;;;5.00;99.90;;;;;;5084532;28;19974;-58
2023/03/12 12:29:19;;;;;;;;;;;5.00;99.90;;;;;;5076058;28;19912;-58
2023/03/12 12:31:49;;;;;;;;;;;5.10;99.90;;;;;;5075121;28;20280;-58
2023/03/12 12:34:22;;;;;;;;;;;5.20;99.90;;;;;;5075932;28;20387;-59
2023/03/12 12:36:50;;;;;;;;;;;5.30;99.90;;;;;;5091098;28;19919;-58
2023/03/12 12:39:37;;;;;;;;;;;5.40;99.90;;;;;;5078400;28;20359;-58
2023/03/12 12:42:04;;;;;;;;;;;5.50;99.90;;;;;;5075802;28;19943;-58
2023/03/12 12:44:32;;;;;;;;;;;5.60;99.90;;;;;;5075977;28;19916;-59
2023/03/12 12:47:01;;;;;;;;;;;5.60;99.90;;;;;;5074918;28;20008;-57
2023/03/12 12:49:26;;;;;;;;;;;5.70;99.90;;;;;;5075702;28;20015;-57
2023/03/12 12:51:56;;;;;;;;;;;5.70;99.90;;;;;;5075527;28;20003;-58
2023/03/12 12:54:22;;;;;;;;;;;5.80;99.90;;;;;;5074753;28;19935;-57
2023/03/12 12:56:51;;;;;;;;;;;5.90;99.90;;;;;;5075385;28;20359;-58
2023/03/12 12:59:20;;;;;;;;;;;5.90;99.90;;;;;;5075391;28;19912;-57
2023/03/12 13:01:46;;;;;;;;;;;5.90;99.90;;;;;;5074157;28;19920;-57
2023/03/12 13:04:14;;;;;;;;;;;6.00;99.90;;;;;;5075253;28;20450;-58
2023/03/12 13:06:56;;;;;;;;;;;6.10;99.90;;;;;;5080486;28;19966;-56
2023/03/12 13:09:34;;;;;;;;;;;6.20;99.90;;;;;;5075128;28;19913;-57
2023/03/12 13:12:05;;;;;;;;;;;6.30;99.90;;;;;;5075371;28;19923;-56
2023/03/12 13:14:35;;;;;;;;;;;6.30;99.90;;;;;;5074373;28;19908;-56
2023/03/12 13:17:27;;;;;;;;;;;6.30;99.90;;;;;;5081148;28;19913;-57
2023/03/12 13:20:09;;;;;;;;;;;6.40;99.90;;;;;;5051355;28;20359;-56
2023/03/12 13:22:35;;;;;;;;;;;6.50;99.90;;;;;;5077878;28;19916;-56
2023/03/12 13:25:12;;;;;;;;;;;6.70;99.90;;;;;;5078996;28;19914;-56
2023/03/12 13:27:43;;;;;;;;;;;6.80;99.90;;;;;;5080237;28;20868;-56
2023/03/12 13:30:27;;;;;;;;;;;6.80;99.90;;;;;;5084747;28;19954;-56
2023/03/12 13:32:55;;;;;;;;;;;6.80;99.90;;;;;;5072502;28;20390;-56
2023/03/12 13:35:21;;;;;;;;;;;6.90;99.90;;;;;;5082227;28;20371;-56
2023/03/12 13:37:49;;;;;;;;;;;6.90;99.90;;;;;;5080987;28;19966;-56
2023/03/12 13:40:34;;;;;;;;;;;7.00;99.90;;;;;;5076617;28;20371;-57
2023/03/12 13:43:10;;;;;;;;;;;7.00;99.90;;;;;;5084751;28;19916;-56
2023/03/12 13:45:54;;;;;;;;;;;7.10;99.90;;;;;;5073660;28;19924;-56
2023/03/12 13:48:21;;;;;;;;;;;7.30;99.90;;;;;;5090426;28;19916;-57
2023/03/12 13:50:54;;;;;;;;;;;7.40;99.90;;;;;;5082602;28;19967;-56
2023/03/12 13:53:35;;;;;;;;;;;7.50;99.90;;;;;;5079825;28;19924;-56
2023/03/12 13:56:03;;;;;;;;;;;7.60;99.90;;;;;;5073002;28;19931;-57
2023/03/12 13:58:29;;;;;;;;;;;7.70;99.90;;;;;;5076968;28;19912;-58
2023/03/12 14:00:55;;;;;;;;;;;7.80;99.90;;;;;;5073959;28;19927;-55
2023/03/12 14:03:24;;;;;;;;;;;7.90;99.90;;;;;;5073703;28;20377;-57
2023/03/12 14:05:52;;;;;;;;;;;8.00;99.90;;;;;;5073550;28;19912;-56
2023/03/12 14:08:35;;;;;;;;;;;8.10;99.90;;;;;;5093861;28;20243;-57
2023/03/12 14:11:19;;;;;;;;;;;8.20;99.90;;;;;;5088087;28;19912;-56
2023/03/12 14:14:03;;;;;;;;;;;8.40;99.90;;;;;;5086377;28;19924;-57
2023/03/12 14:16:31;;;;;;;;;;;8.40;99.90;;;;;;5072475;28;19917;-56
2023/03/12 14:18:57;;;;;;;;;;;8.50;99.90;;;;;;5073389;28;19913;-56
2023/03/12 14:21:22;;;;;;;;;;;8.50;99.90;;;;;;5075813;28;20370;-58
2023/03/12 14:23:51;;;;;;;;;;;8.50;99.90;;;;;;5085712;28;20351;-57
2023/03/12 14:26:24;;;;;;;;;;;8.50;99.90;;;;;;5088010;28;19908;-56
2023/03/12 14:28:54;;;;;;;;;;;8.50;99.90;;;;;;5076764;28;19913;-56
2023/03/12 14:31:22;;;;;;;;;;;8.50;99.90;;;;;;5083974;28;19967;-57
2023/03/12 14:33:59;;;;;;;;;;;8.50;99.90;;;;;;5085790;28;19920;-56
2023/03/12 14:36:31;;;;;;;;;;;8.50;99.90;;;;;;5074558;28;19908;-57